Time;durP1;ratioP1;P1;durP2;ratioP2;P2;SDS_P1;SDS_P2;PMS_P1;PMS_P2;Temp;Humidity;BMP_temperature;BMP_pressure;BME280_temperature;BME280_humidity;BME280_pressure;Samples;Min_cycle;Max_cycle;Signal;HPM_P1;HPM_P2
2022/10/15 00:01:16;;;;;;;70.55;39.85;;;12.00;99.90;;;;;;4946818;29;20174;-63
2022/10/15 00:03:43;;;;;;;78.53;40.72;;;12.00;99.90;;;;;;4945637;29;20506;-64
2022/10/15 00:06:12;;;;;;;76.70;40.60;;;11.80;99.90;;;;;;4945492;28;20047;-63
2022/10/15 00:08:38;;;;;;;75.25;41.65;;;11.80;99.90;;;;;;4946701;29;20442;-63
2022/10/15 00:11:25;;;;;;;78.50;43.63;;;11.80;99.90;;;;;;4945948;29;20047;-63
2022/10/15 00:13:56;;;;;;;73.93;40.83;;;12.10;99.90;;;;;;4946405;29;20059;-62
2022/10/15 00:16:24;;;;;;;77.18;43.35;;;12.00;99.90;;;;;;4944567;29;20050;-64
2022/10/15 00:18:51;;;;;;;77.38;42.08;;;11.70;99.90;;;;;;4946742;29;20063;-64
2022/10/15 00:21:18;;;;;;;77.68;43.83;;;11.70;99.90;;;;;;4946115;29;20078;-62
2022/10/15 00:23:45;;;;;;;81.63;43.80;;;11.90;99.90;;;;;;4944778;29;20055;-62
2022/10/15 00:26:17;;;;;;;80.50;44.85;;;11.80;99.90;;;;;;4943835;29;20129;-63
2022/10/15 00:28:44;;;;;;;82.18;45.67;;;11.70;99.90;;;;;;4946391;28;20058;-63
2022/10/15 00:31:12;;;;;;;73.38;43.45;;;11.70;99.90;;;;;;4945453;29;20830;-63
2022/10/15 00:33:39;;;;;;;76.78;43.47;;;11.80;99.90;;;;;;4945655;29;20130;-63
2022/10/15 00:36:10;;;;;;;69.32;42.45;;;12.00;99.90;;;;;;4945747;29;20044;-62
2022/10/15 00:38:35;;;;;;;74.55;43.47;;;12.00;99.90;;;;;;4946099;29;20134;-62
2022/10/15 00:41:03;;;;;;;78.13;44.83;;;11.90;99.90;;;;;;4945561;29;20059;-62
2022/10/15 00:43:48;;;;;;;71.05;43.03;;;12.00;99.90;;;;;;4945956;28;20039;-63
2022/10/15 00:46:22;;;;;;;74.50;43.03;;;12.00;99.90;;;;;;4945117;29;20429;-64
2022/10/15 00:48:53;;;;;;;71.03;42.22;;;12.00;99.90;;;;;;4945688;29;20506;-62
2022/10/15 00:51:21;;;;;;;74.25;43.40;;;12.00;99.90;;;;;;4945681;29;20043;-65
2022/10/15 00:53:48;;;;;;;77.75;46.10;;;12.00;99.90;;;;;;4945045;29;20406;-63
2022/10/15 00:56:16;;;;;;;77.80;46.35;;;12.00;99.90;;;;;;4945234;29;20047;-64
2022/10/15 00:58:42;;;;;;;82.60;46.78;;;11.80;99.90;;;;;;4928304;29;20105;-64
2022/10/15 01:01:08;;;;;;;78.75;45.65;;;11.70;99.90;;;;;;4945298;29;20463;-63
2022/10/15 01:03:34;;;;;;;79.00;46.92;;;12.00;99.90;;;;;;4945009;29;20097;-62
2022/10/15 01:06:01;;;;;;;75.57;45.50;;;11.80;99.90;;;;;;4944873;28;20051;-62
2022/10/15 01:08:27;;;;;;;82.47;48.97;;;12.00;99.90;;;;;;4945149;29;20055;-65
2022/10/15 01:10:56;;;;;;;81.15;46.53;;;11.90;99.90;;;;;;4945053;29;20502;-62
2022/10/15 01:13:43;;;;;;;77.45;46.72;;;12.00;99.90;;;;;;4945210;29;20070;-63
2022/10/15 01:16:55;;;;;;;81.05;47.75;;;12.00;99.90;;;;;;4944142;29;20302;-63
2022/10/15 01:19:45;;;;;;;76.35;45.55;;;11.70;99.90;;;;;;4925742;29;20043;-64
2022/10/15 01:22:44;;;;;;;74.00;43.50;;;11.70;99.90;;;;;;4925975;29;20043;-62
2022/10/15 01:25:44;;;;;;;76.03;45.65;;;11.70;99.90;;;;;;4908793;29;20062;-62
2022/10/15 01:28:51;;;;;;;76.90;45.47;;;11.70;99.90;;;;;;4925237;29;20063;-63
2022/10/15 01:31:35;;;;;;;82.22;46.83;;;11.90;99.90;;;;;;4901852;29;20087;-62
2022/10/15 01:34:08;;;;;;;72.60;45.25;;;11.70;99.90;;;;;;4926230;29;20043;-62
2022/10/15 01:36:46;;;;;;;77.00;43.85;;;11.70;99.90;;;;;;4925133;29;20047;-64
2022/10/15 01:39:30;;;;;;;77.28;46.13;;;11.70;99.90;;;;;;4925639;29;20711;-62
2022/10/15 01:42:04;;;;;;;72.90;44.92;;;12.00;99.90;;;;;;4925198;29;20075;-64
2022/10/15 01:44:35;;;;;;;76.72;45.33;;;11.90;99.90;;;;;;4926021;29;20047;-65
2022/10/15 01:47:07;;;;;;;75.85;46.25;;;12.00;99.90;;;;;;4925898;29;20110;-63
2022/10/15 01:49:38;;;;;;;76.05;43.85;;;11.70;99.90;;;;;;4925669;29;20135;-62
2022/10/15 01:52:09;;;;;;;76.78;46.70;;;11.70;99.90;;;;;;4908924;29;20058;-62
2022/10/15 01:54:36;;;;;;;78.05;45.00;;;11.70;99.90;;;;;;4908275;29;20044;-64
2022/10/15 01:57:03;;;;;;;71.57;42.42;;;11.80;99.90;;;;;;4928438;29;20043;-66
2022/10/15 01:59:31;;;;;;;65.95;42.95;;;11.70;99.90;;;;;;4930213;29;20044;-65
2022/10/15 02:01:57;;;;;;;74.95;43.28;;;11.80;99.90;;;;;;4912293;29;20040;-63
2022/10/15 02:04:28;;;;;;;70.40;43.08;;;11.70;99.90;;;;;;4928817;28;20094;-62
2022/10/15 02:07:03;;;;;;;72.85;44.05;;;11.80;99.90;;;;;;4947970;29;20043;-63
2022/10/15 02:09:33;;;;;;;;;;;11.90;99.90;;;;;;4949552;29;20079;-63
2022/10/15 02:12:17;;;;;;;76.63;45.60;;;11.60;99.90;;;;;;4949389;29;19977;-62
2022/10/15 02:14:52;;;;;;;74.30;45.15;;;11.50;99.90;;;;;;4948656;29;20051;-62
2022/10/15 02:17:25;;;;;;;80.75;47.15;;;11.70;99.90;;;;;;4946835;29;20180;-62
2022/10/15 02:19:58;;;;;;;69.93;41.08;;;11.50;99.90;;;;;;4948593;29;20057;-65
2022/10/15 02:22:27;;;;;;;86.20;47.92;;;11.40;99.90;;;;;;4947985;28;20098;-63
2022/10/15 02:25:09;;;;;;;88.35;50.25;;;11.60;99.90;;;;;;4967549;28;20410;-64
2022/10/15 02:27:36;;;;;;;90.85;50.60;;;11.50;99.90;;;;;;4967803;28;20042;-62
2022/10/15 02:30:05;;;;;;;95.97;50.65;;;11.70;99.90;;;;;;4967242;28;20499;-62
2022/10/15 02:32:32;;;;;;;97.20;52.45;;;11.50;99.90;;;;;;4967567;28;20046;-65
2022/10/15 02:35:00;;;;;;;94.18;52.80;;;11.60;99.90;;;;;;4968096;28;20039;-62
2022/10/15 02:37:28;;;;;;;100.97;53.03;;;11.80;99.90;;;;;;4966710;28;20046;-63
2022/10/15 02:39:54;;;;;;;94.63;50.47;;;11.40;99.90;;;;;;4967340;28;20043;-63
2022/10/15 02:42:19;;;;;;;87.55;49.28;;;11.50;99.90;;;;;;4966970;28;20049;-64
2022/10/15 02:44:45;;;;;;;97.88;52.40;;;11.40;99.90;;;;;;4966964;28;20493;-65
2022/10/15 02:47:11;;;;;;;101.28;53.53;;;11.60;99.90;;;;;;4966048;28;20043;-62
2022/10/15 02:49:37;;;;;;;99.68;53.80;;;11.70;99.90;;;;;;4967115;28;20052;-62
2022/10/15 02:52:03;;;;;;;92.90;50.40;;;11.40;99.90;;;;;;4967051;28;20042;-63
2022/10/15 02:54:29;;;;;;;95.63;50.80;;;11.40;99.90;;;;;;4966789;28;20039;-63
2022/10/15 02:56:54;;;;;;;93.88;52.30;;;11.60;99.90;;;;;;4967266;28;20069;-65
2022/10/15 02:59:20;;;;;;;91.25;49.85;;;11.50;99.90;;;;;;4967275;28;20075;-62
2022/10/15 03:01:46;;;;;;;88.72;50.53;;;11.50;99.90;;;;;;4966136;28;20584;-62
2022/10/15 03:04:12;;;;;;;88.28;49.88;;;11.60;99.90;;;;;;4965940;28;20089;-63
2022/10/15 03:06:38;;;;;;;90.72;50.80;;;11.40;99.90;;;;;;4948151;28;20055;-62
2022/10/15 03:09:04;;;;;;;86.30;49.15;;;11.50;99.90;;;;;;4948202;29;20126;-65
2022/10/15 03:11:29;;;;;;;95.75;53.05;;;11.50;99.90;;;;;;4947555;29;20134;-62
2022/10/15 03:13:55;;;;;;;93.00;51.00;;;11.60;99.90;;;;;;4930788;29;20126;-62
2022/10/15 03:16:21;;;;;;;75.10;45.17;;;11.50;99.90;;;;;;4946939;29;20047;-62
2022/10/15 03:18:47;;;;;;;80.57;47.90;;;11.40;99.90;;;;;;4948059;29;20127;-62
2022/10/15 03:21:12;;;;;;;85.43;49.45;;;11.50;99.90;;;;;;4946688;29;20042;-63
2022/10/15 03:23:38;;;;;;;83.30;48.20;;;11.30;99.90;;;;;;4930977;29;20059;-62
2022/10/15 03:26:04;;;;;;;74.13;44.20;;;11.70;99.90;;;;;;4947422;29;20051;-63
2022/10/15 03:28:29;;;;;;;83.78;46.17;;;11.70;99.90;;;;;;4947973;29;20043;-63
2022/10/15 03:30:55;;;;;;;85.55;48.05;;;11.50;99.90;;;;;;4928703;29;20603;-62
2022/10/15 03:33:21;;;;;;;78.57;44.38;;;11.70;99.90;;;;;;4947530;29;20842;-63
2022/10/15 03:35:46;;;;;;;79.60;47.55;;;11.40;99.90;;;;;;4947101;29;20383;-63
2022/10/15 03:38:12;;;;;;;71.00;42.97;;;11.40;99.90;;;;;;4946307;29;20637;-62
2022/10/15 03:40:38;;;;;;;74.93;43.45;;;11.70;99.90;;;;;;4947035;29;20351;-64
2022/10/15 03:43:04;;;;;;;77.85;43.92;;;11.40;99.90;;;;;;4947122;29;20043;-63
2022/10/15 03:45:29;;;;;;;74.38;43.83;;;11.40;99.90;;;;;;4947200;29;20055;-63
2022/10/15 03:47:55;;;;;;;77.53;44.90;;;11.50;99.90;;;;;;4945703;29;20054;-65
2022/10/15 03:50:21;;;;;;;82.30;46.03;;;11.70;99.90;;;;;;4947369;29;20039;-62
2022/10/15 03:52:46;;;;;;;76.93;45.88;;;11.40;99.90;;;;;;4946815;29;20039;-64
2022/10/15 03:55:12;;;;;;;77.55;44.28;;;11.60;99.90;;;;;;4946330;29;20051;-64
2022/10/15 03:57:38;;;;;;;83.97;45.47;;;11.70;99.90;;;;;;4946505;29;20042;-63
2022/10/15 04:00:05;;;;;;;77.00;44.50;;;11.40;99.90;;;;;;4946957;29;20053;-63
2022/10/15 04:02:31;;;;;;;78.35;45.08;;;11.50;99.90;;;;;;4945616;29;20043;-64
2022/10/15 04:04:57;;;;;;;72.47;42.80;;;11.50;99.90;;;;;;4945592;29;20054;-63
2022/10/15 04:07:23;;;;;;;69.03;40.80;;;11.70;99.90;;;;;;4946428;29;20101;-65
2022/10/15 04:09:48;;;;;;;77.50;43.90;;;11.70;99.90;;;;;;4946037;29;20237;-63
2022/10/15 04:12:15;;;;;;;74.70;42.15;;;11.50;99.90;;;;;;4928784;29;20051;-64
2022/10/15 04:14:41;;;;;;;74.10;42.40;;;11.70;99.90;;;;;;4945189;29;20039;-64
2022/10/15 04:17:06;;;;;;;77.78;44.15;;;11.70;99.90;;;;;;4944798;29;20407;-65
2022/10/15 04:19:32;;;;;;;68.07;41.30;;;11.40;99.90;;;;;;4945407;28;20667;-63
2022/10/15 04:21:58;;;;;;;75.82;43.45;;;11.40;99.90;;;;;;4945436;29;20800;-62
2022/10/15 04:24:24;;;;;;;69.85;40.05;;;11.70;99.90;;;;;;4927731;29;20054;-62
2022/10/15 04:26:49;;;;;;;73.78;41.28;;;11.40;99.90;;;;;;4945469;29;20043;-63
2022/10/15 04:29:15;;;;;;;57.95;33.70;;;11.40;99.90;;;;;;4945565;29;20049;-62
2022/10/15 04:31:41;;;;;;;67.97;39.63;;;11.70;99.90;;;;;;4944965;29;20047;-63
2022/10/15 04:34:07;;;;;;;70.45;40.88;;;11.50;99.90;;;;;;4945780;29;20490;-62
2022/10/15 04:36:33;;;;;;;68.38;42.08;;;11.70;99.90;;;;;;4928759;29;20117;-62
2022/10/15 04:38:59;;;;;;;73.05;42.25;;;11.80;99.90;;;;;;4946352;29;20039;-63
2022/10/15 04:41:26;;;;;;;72.45;40.90;;;11.70;99.90;;;;;;4944950;29;20780;-62
2022/10/15 04:43:51;;;;;;;65.25;39.35;;;11.70;99.90;;;;;;4945207;29;20410;-62
2022/10/15 04:46:18;;;;;;;63.03;38.03;;;11.40;99.90;;;;;;4944413;29;20053;-62
2022/10/15 04:48:44;;;;;;;67.57;40.45;;;11.80;99.90;;;;;;4945173;29;20139;-64
2022/10/15 04:51:18;;;;;;;67.63;40.63;;;11.50;99.90;;;;;;4945334;29;20126;-64
2022/10/15 04:53:44;;;;;;;65.75;37.90;;;11.70;99.90;;;;;;4945615;29;20043;-61
2022/10/15 04:56:14;;;;;;;67.75;40.85;;;11.50;99.90;;;;;;4944421;29;20035;-63
2022/10/15 04:58:40;;;;;;;68.53;39.70;;;11.40;99.90;;;;;;4945051;29;20047;-62
2022/10/15 05:01:10;;;;;;;72.10;40.42;;;11.80;99.90;;;;;;4944165;29;20123;-65
2022/10/15 05:03:37;;;;;;;67.75;39.53;;;11.70;99.90;;;;;;4944275;29;20059;-63
2022/10/15 05:06:21;;;;;;;69.82;40.72;;;11.70;99.90;;;;;;4944513;29;20047;-63
2022/10/15 05:08:48;;;;;;;65.63;40.53;;;11.50;99.90;;;;;;4945926;29;20047;-62
2022/10/15 05:11:17;;;;;;;71.85;40.33;;;11.60;99.90;;;;;;4944771;29;20141;-63
2022/10/15 05:13:43;;;;;;;75.40;40.83;;;11.30;99.90;;;;;;4945693;29;20043;-62
2022/10/15 05:16:09;;;;;;;76.88;42.17;;;11.40;99.90;;;;;;4944201;29;20047;-62
2022/10/15 05:18:34;;;;;;;75.35;39.97;;;11.60;99.90;;;;;;4944646;29;20078;-62
2022/10/15 05:21:01;;;;;;;72.90;41.78;;;11.20;99.90;;;;;;4945322;29;20051;-62
2022/10/15 05:23:26;;;;;;;71.60;40.38;;;11.60;99.90;;;;;;4945438;29;20118;-64
2022/10/15 05:25:52;;;;;;;72.30;41.05;;;11.60;99.90;;;;;;4945509;29;20054;-62
2022/10/15 05:28:18;;;;;;;78.05;42.65;;;11.30;99.90;;;;;;4944154;29;20039;-63
2022/10/15 05:30:44;;;;;;;72.40;41.03;;;11.40;99.90;;;;;;4926767;29;20491;-62
2022/10/15 05:33:10;;;;;;;81.43;42.42;;;11.40;99.90;;;;;;4927622;29;20060;-64
2022/10/15 05:35:36;;;;;;;76.97;41.30;;;11.30;99.90;;;;;;4944548;29;20067;-64
2022/10/15 05:38:03;;;;;;;78.35;44.35;;;11.30;99.90;;;;;;4944871;29;20047;-66
2022/10/15 05:40:29;;;;;;;78.72;41.80;;;11.50;99.90;;;;;;4928221;29;20069;-63
2022/10/15 05:42:55;;;;;;;78.32;42.72;;;11.30;99.90;;;;;;4944897;29;20110;-64
2022/10/15 05:45:21;;;;;;;79.43;44.88;;;11.40;99.90;;;;;;4943066;29;20050;-63
2022/10/15 05:47:47;;;;;;;78.90;44.83;;;11.30;99.90;;;;;;4927362;29;20093;-64
2022/10/15 05:50:13;;;;;;;81.20;44.50;;;11.40;99.90;;;;;;4944105;29;20054;-63
2022/10/15 05:52:38;;;;;;;87.72;45.88;;;11.30;99.90;;;;;;4944620;29;20462;-65
2022/10/15 05:55:04;;;;;;;83.63;43.67;;;11.40;99.90;;;;;;4942913;29;20051;-63
2022/10/15 05:57:30;;;;;;;79.70;43.53;;;11.20;99.90;;;;;;4943319;29;20083;-63
2022/10/15 05:59:56;;;;;;;81.55;42.97;;;11.40;99.90;;;;;;4927197;29;20062;-64
2022/10/15 06:02:21;;;;;;;81.95;43.75;;;11.20;99.90;;;;;;4943103;29;20058;-63
2022/10/15 06:04:47;;;;;;;86.70;45.75;;;11.30;99.90;;;;;;4943951;29;20664;-63
2022/10/15 06:07:14;;;;;;;83.90;45.47;;;11.40;99.90;;;;;;4943839;29;20111;-63
2022/10/15 06:09:40;;;;;;;82.00;43.25;;;11.30;99.90;;;;;;4943491;29;20122;-63
2022/10/15 06:12:05;;;;;;;83.65;44.35;;;11.20;99.90;;;;;;4943725;29;20130;-64
2022/10/15 06:14:31;;;;;;;87.68;44.38;;;11.40;99.90;;;;;;4944688;29;20078;-66
2022/10/15 06:16:57;;;;;;;82.47;43.53;;;11.20;99.90;;;;;;4943874;29;20102;-64
2022/10/15 06:19:22;;;;;;;85.90;44.67;;;11.30;99.90;;;;;;4943513;29;20055;-65
2022/10/15 06:21:48;;;;;;;84.78;44.45;;;11.40;99.90;;;;;;4944701;29;20035;-63
2022/10/15 06:24:14;;;;;;;86.80;45.78;;;11.50;99.90;;;;;;4944062;29;20406;-62
2022/10/15 06:26:39;;;;;;;80.72;44.17;;;11.40;99.90;;;;;;4944625;29;20125;-64
2022/10/15 06:29:05;;;;;;;85.57;47.50;;;11.40;99.90;;;;;;4943148;29;20043;-63
2022/10/15 06:31:30;;;;;;;85.60;46.30;;;11.40;99.90;;;;;;4943991;29;20039;-63
2022/10/15 06:33:56;;;;;;;79.80;44.90;;;11.40;99.90;;;;;;4944939;29;20050;-63
2022/10/15 06:36:23;;;;;;;79.40;42.20;;;11.20;99.90;;;;;;4944397;29;20506;-64
2022/10/15 06:38:49;;;;;;;80.45;46.17;;;11.30;99.90;;;;;;4943880;29;20043;-65
2022/10/15 06:41:15;;;;;;;86.90;47.15;;;11.20;99.90;;;;;;4944300;29;20102;-64
2022/10/15 06:43:41;;;;;;;85.30;47.05;;;11.50;99.90;;;;;;4947819;29;20131;-63
2022/10/15 06:46:07;;;;;;;88.93;48.05;;;11.30;99.90;;;;;;4946344;29;20122;-64
2022/10/15 06:48:33;;;;;;;86.72;45.92;;;11.40;99.90;;;;;;4947973;29;20102;-63
2022/10/15 06:51:00;;;;;;;87.13;46.78;;;11.50;99.90;;;;;;4948491;29;20050;-64
2022/10/15 06:53:27;;;;;;;83.20;45.50;;;11.20;99.90;;;;;;4930090;29;20098;-63
2022/10/15 06:55:57;;;;;;;82.65;46.00;;;11.40;99.90;;;;;;4946912;29;20083;-63
2022/10/15 06:58:23;;;;;;;88.53;46.72;;;11.50;99.90;;;;;;4947346;29;20047;-63
2022/10/15 07:00:49;;;;;;;84.15;46.95;;;11.40;99.90;;;;;;4947281;29;20047;-63
2022/10/15 07:03:14;;;;;;;82.32;43.97;;;11.30;99.90;;;;;;4946699;29;20478;-64
2022/10/15 07:05:40;;;;;;;78.22;44.38;;;11.60;99.90;;;;;;4947405;29;20187;-63
2022/10/15 07:08:05;;;;;;;86.60;47.38;;;11.50;99.90;;;;;;4948120;29;20516;-64
2022/10/15 07:10:31;;;;;;;75.95;44.60;;;11.40;99.90;;;;;;4947806;29;20410;-65
2022/10/15 07:13:01;;;;;;;79.18;44.22;;;11.30;99.90;;;;;;4947295;29;20043;-62
2022/10/15 07:15:27;;;;;;;87.25;46.97;;;11.60;99.90;;;;;;4929868;29;20063;-65
2022/10/15 07:18:00;;;;;;;84.38;47.33;;;11.60;99.90;;;;;;4947563;29;20126;-63
2022/10/15 07:20:27;;;;;;;82.85;46.50;;;11.60;99.90;;;;;;4946609;29;20055;-62
2022/10/15 07:23:00;;;;;;;78.07;45.40;;;11.40;99.90;;;;;;4947394;29;20082;-65
2022/10/15 07:25:26;;;;;;;74.85;43.03;;;11.50;99.90;;;;;;4946778;29;20054;-62
2022/10/15 07:27:54;;;;;;;78.97;45.30;;;11.60;99.90;;;;;;4946484;29;20047;-62
2022/10/15 07:30:20;;;;;;;74.88;43.13;;;11.70;99.90;;;;;;4946592;29;20097;-64
2022/10/15 07:32:46;;;;;;;75.70;43.67;;;11.50;99.90;;;;;;4946953;29;20502;-63
2022/10/15 07:35:11;;;;;;;73.07;42.60;;;11.70;99.90;;;;;;4946400;29;20098;-63
2022/10/15 07:37:37;;;;;;;78.70;45.85;;;11.50;99.90;;;;;;4947121;29;20062;-63
2022/10/15 07:40:03;;;;;;;69.45;41.20;;;11.60;99.90;;;;;;4946687;29;20597;-63
2022/10/15 07:42:29;;;;;;;71.97;44.92;;;11.80;99.90;;;;;;4947541;29;20043;-64
2022/10/15 07:44:54;;;;;;;73.00;44.15;;;11.90;99.90;;;;;;4946250;29;20043;-62
2022/10/15 07:47:20;;;;;;;72.20;44.30;;;11.70;99.90;;;;;;4946029;29;20047;-62
2022/10/15 07:49:46;;;;;;;70.75;42.97;;;11.70;99.90;;;;;;4947236;29;20058;-62
2022/10/15 07:52:11;;;;;;;64.47;38.97;;;11.80;99.90;;;;;;4929269;29;20069;-62
2022/10/15 07:54:37;;;;;;;69.40;41.92;;;11.70;99.90;;;;;;4945446;28;20054;-65
2022/10/15 07:57:05;;;;;;;69.47;42.72;;;11.80;99.90;;;;;;4946259;29;20083;-63
2022/10/15 07:59:31;;;;;;;62.30;37.10;;;12.10;99.90;;;;;;4947336;29;20048;-62
2022/10/15 08:01:57;;;;;;;68.70;41.42;;;11.90;99.90;;;;;;4928355;29;20603;-62
2022/10/15 08:04:23;;;;;;;70.68;42.38;;;11.90;99.90;;;;;;4945806;29;20043;-62
2022/10/15 08:06:48;;;;;;;63.58;36.83;;;12.20;99.90;;;;;;4946551;29;20675;-62
2022/10/15 08:09:14;;;;;;;61.55;39.92;;;12.20;99.90;;;;;;4946087;29;20043;-62
2022/10/15 08:11:40;;;;;;;66.43;42.17;;;12.20;99.90;;;;;;4945991;29;20055;-62
2022/10/15 08:14:06;;;;;;;71.47;42.10;;;12.20;99.90;;;;;;4928601;29;20050;-64
2022/10/15 08:16:31;;;;;;;64.68;40.20;;;12.20;99.90;;;;;;4945815;29;20047;-66
2022/10/15 08:18:58;;;;;;;59.83;37.05;;;12.30;99.90;;;;;;4946642;29;20406;-63
2022/10/15 08:21:24;;;;;;;63.92;38.88;;;12.40;99.90;;;;;;4945711;29;20426;-62
2022/10/15 08:23:50;;;;;;;62.50;40.08;;;12.30;99.90;;;;;;4945804;29;20062;-62
2022/10/15 08:26:16;;;;;;;47.90;31.58;;;12.30;99.90;;;;;;4945787;29;20055;-64
2022/10/15 08:28:42;;;;;;;58.20;37.38;;;12.40;99.90;;;;;;4945692;29;20063;-62
2022/10/15 08:31:07;;;;;;;56.92;36.15;;;12.70;99.90;;;;;;4945081;29;20066;-63
2022/10/15 08:33:34;;;;;;;55.92;38.33;;;12.60;99.90;;;;;;4945832;29;20089;-63
2022/10/15 08:36:00;;;;;;;55.35;36.65;;;13.00;99.90;;;;;;4946159;29;20459;-63
2022/10/15 08:38:26;;;;;;;55.28;37.20;;;12.90;99.90;;;;;;4945635;29;20391;-63
2022/10/15 08:40:54;;;;;;;50.60;35.00;;;13.00;99.90;;;;;;4946061;29;20054;-63
2022/10/15 08:43:38;;;;;;;47.13;31.13;;;13.10;99.90;;;;;;4945476;29;20043;-62
2022/10/15 08:46:39;;;;;;;40.13;24.30;;;13.10;99.90;;;;;;4945272;29;20453;-65
2022/10/15 08:49:13;;;;;;;47.85;34.10;;;13.20;99.90;;;;;;4934040;29;20425;-62
2022/10/15 08:51:47;;;;;;;48.05;35.17;;;13.20;99.90;;;;;;4945485;29;20051;-64
2022/10/15 08:54:17;;;;;;;47.60;33.30;;;13.40;99.90;;;;;;4944204;29;20410;-64
2022/10/15 08:56:46;;;;;;;42.35;29.33;;;13.50;99.90;;;;;;4945401;29;20086;-64
2022/10/15 08:59:11;;;;;;;40.53;28.42;;;13.60;99.90;;;;;;4945189;29;20050;-62
2022/10/15 09:01:49;;;;;;;46.05;33.50;;;13.40;99.90;;;;;;4944415;29;20055;-62
2022/10/15 09:04:35;;;;;;;44.10;30.45;;;13.50;99.90;;;;;;4927222;29;20118;-64
2022/10/15 09:07:26;;;;;;;42.40;30.70;;;13.60;99.90;;;;;;4943009;29;20078;-65
2022/10/15 09:09:59;;;;;;;43.53;30.60;;;13.80;99.90;;;;;;4937080;29;20059;-65
2022/10/15 09:12:42;;;;;;;43.00;32.38;;;13.80;99.90;;;;;;4943627;29;20087;-63
2022/10/15 09:15:17;;;;;;;36.35;21.60;;;13.90;99.90;;;;;;4927000;29;20083;-61
2022/10/15 09:17:47;;;;;;;40.95;31.77;;;14.10;99.90;;;;;;4944357;29;20062;-64
2022/10/15 09:20:19;;;;;;;41.03;29.50;;;14.20;99.90;;;;;;4943808;28;20074;-65
2022/10/15 09:22:49;;;;;;;40.28;28.50;;;14.20;99.90;;;;;;4944982;29;20252;-65
2022/10/15 09:25:20;;;;;;;37.10;22.85;;;14.00;99.90;;;;;;4944337;29;20047;-63
2022/10/15 09:27:48;;;;;;;41.75;31.15;;;14.00;99.90;;;;;;4945191;29;20047;-63
2022/10/15 09:30:48;;;;;;;41.30;31.40;;;14.20;99.90;;;;;;4944238;29;20045;-63
2022/10/15 09:33:41;;;;;;;39.92;30.50;;;14.20;99.90;;;;;;4933721;29;20082;-65
2022/10/15 09:36:15;;;;;;;36.97;27.13;;;14.50;99.90;;;;;;4944295;29;20058;-63
2022/10/15 09:39:00;;;;;;;43.08;31.65;;;14.20;99.90;;;;;;4925235;29;20055;-64
2022/10/15 09:41:52;;;;;;;34.90;24.58;;;14.30;99.90;;;;;;4944344;29;20074;-62
2022/10/15 09:44:23;;;;;;;33.85;24.73;;;14.20;99.90;;;;;;4944580;29;20435;-65
2022/10/15 09:46:50;;;;;;;41.25;31.60;;;14.30;99.90;;;;;;4943903;29;20047;-63
2022/10/15 09:49:24;;;;;;;39.58;30.40;;;14.30;99.90;;;;;;4927517;29;20114;-63
2022/10/15 09:52:44;;;;;;;41.53;33.58;;;14.50;99.90;;;;;;4944791;29;20455;-64
2022/10/15 09:55:27;;;;;;;34.38;24.23;;;14.60;99.90;;;;;;4884086;29;20087;-63
2022/10/15 09:57:57;;;;;;;40.20;30.55;;;14.20;99.90;;;;;;4944783;29;20079;-63
2022/10/15 10:00:23;;;;;;;40.20;29.02;;;14.40;99.90;;;;;;4943463;29;20051;-65
2022/10/15 10:03:06;;;;;;;39.22;30.02;;;14.20;99.90;;;;;;4944607;29;20046;-63
2022/10/15 10:05:35;;;;;;;33.17;23.48;;;14.30;99.90;;;;;;4944324;29;20055;-65
2022/10/15 10:08:24;;;;;;;41.92;30.15;;;14.30;99.90;;;;;;4943373;29;20039;-63
2022/10/15 10:11:01;;;;;;;35.28;29.08;;;14.20;99.90;;;;;;4954204;28;20054;-61
2022/10/15 10:13:38;;;;;;;29.38;23.42;;;14.00;99.90;;;;;;4962881;28;20054;-63
2022/10/15 10:16:12;;;;;;;30.30;21.80;;;14.20;99.90;;;;;;4941784;28;20545;-64
2022/10/15 10:18:38;;;;;;;29.85;23.77;;;13.90;99.90;;;;;;4943873;29;20106;-64
2022/10/15 10:21:19;;;;;;;25.60;17.75;;;14.00;99.90;;;;;;4947864;29;20078;-62
2022/10/15 10:23:45;;;;;;;33.38;25.05;;;13.90;99.90;;;;;;4944603;29;20398;-61
2022/10/15 10:26:12;;;;;;;31.67;21.60;;;13.90;99.90;;;;;;4947757;29;20043;-62
2022/10/15 10:28:55;;;;;;;35.13;24.38;;;13.90;99.90;;;;;;4946962;29;20173;-62
2022/10/15 10:31:30;;;;;;;36.50;24.08;;;13.70;99.90;;;;;;4928595;29;20074;-62
2022/10/15 10:34:00;;;;;;;35.42;23.15;;;13.50;99.90;;;;;;4945527;29;20051;-62
2022/10/15 10:36:27;;;;;;;37.15;25.88;;;13.40;99.90;;;;;;4945632;29;20059;-63
2022/10/15 10:39:14;;;;;;;34.15;23.30;;;13.50;99.90;;;;;;4947444;29;20047;-62
2022/10/15 10:41:51;;;;;;;40.35;27.50;;;13.60;99.90;;;;;;4947834;29;20118;-63
2022/10/15 10:44:25;;;;;;;31.70;21.20;;;13.50;99.90;;;;;;4946893;29;20122;-62
2022/10/15 10:47:14;;;;;;;34.75;21.05;;;13.40;99.90;;;;;;4946786;29;20086;-62
2022/10/15 10:49:48;;;;;;;27.98;17.60;;;13.50;99.90;;;;;;4946451;29;20047;-62
2022/10/15 10:52:22;;;;;;;;;;;13.40;99.90;;;;;;4946985;29;20062;-63
2022/10/15 10:54:54;;;;;;;36.58;24.45;;;13.20;99.90;;;;;;4946722;29;19972;-63
2022/10/15 10:57:26;;;;;;;37.25;24.80;;;13.20;99.90;;;;;;4945839;29;20043;-63
2022/10/15 10:59:55;;;;;;;37.67;24.88;;;13.10;99.90;;;;;;4946805;29;20079;-62
2022/10/15 11:02:20;;;;;;;40.70;26.63;;;13.40;99.90;;;;;;4946782;29;20062;-61
2022/10/15 11:04:46;;;;;;;34.28;19.77;;;13.40;99.90;;;;;;4946615;29;20051;-62
2022/10/15 11:07:38;;;;;;;37.72;25.35;;;13.40;99.90;;;;;;4944250;29;20071;-63
2022/10/15 11:10:30;;;;;;;37.08;23.20;;;13.30;99.90;;;;;;4945403;29;20656;-62
2022/10/15 11:13:17;;;;;;;38.58;26.35;;;13.20;99.90;;;;;;4946476;29;20399;-63
2022/10/15 11:15:55;;;;;;;38.90;27.75;;;13.30;99.90;;;;;;4945526;29;20054;-64
2022/10/15 11:18:33;;;;;;;39.88;26.27;;;13.50;99.90;;;;;;4945825;29;20580;-63
2022/10/15 11:21:36;;;;;;;40.03;26.15;;;13.50;99.90;;;;;;4946974;29;20609;-63
2022/10/15 11:24:25;;;;;;;34.88;24.98;;;13.90;99.90;;;;;;4945702;29;20086;-65
2022/10/15 11:26:59;;;;;;;31.38;23.35;;;13.90;99.90;;;;;;4946693;29;20047;-64
2022/10/15 11:29:39;;;;;;;28.63;22.08;;;14.30;99.90;;;;;;4944549;28;20174;-63
2022/10/15 11:32:36;;;;;;;29.15;21.25;;;14.40;99.90;;;;;;4946885;29;20047;-64
2022/10/15 11:35:29;;;;;;;24.67;18.73;;;14.30;99.90;;;;;;4946983;29;20094;-65
2022/10/15 11:38:45;;;;;;;29.38;20.95;;;14.50;99.90;;;;;;4945887;29;20126;-62
2022/10/15 11:41:46;;;;;;;25.05;18.98;;;14.60;99.90;;;;;;4928979;29;20122;-62
2022/10/15 11:44:47;;;;;;;24.30;18.30;;;14.60;99.90;;;;;;4945532;29;20051;-64
2022/10/15 11:47:33;;;;;;;23.33;15.45;;;14.70;99.90;;;;;;4946916;29;20109;-62
2022/10/15 11:50:18;;;;;;;26.38;18.73;;;14.70;99.90;;;;;;4938950;29;20051;-62
2022/10/15 11:52:44;;;;;;;24.05;18.02;;;14.70;99.90;;;;;;4946139;29;20079;-63
2022/10/15 11:55:21;;;;;;;23.45;16.77;;;14.60;99.90;;;;;;4946599;29;20580;-62
2022/10/15 11:57:51;;;;;;;16.00;11.30;;;14.60;99.90;;;;;;4943880;29;20047;-62
2022/10/15 12:00:41;;;;;;;17.38;11.00;;;14.60;99.90;;;;;;4943948;29;20042;-62
2022/10/15 12:03:16;;;;;;;21.40;15.45;;;14.60;99.90;;;;;;4944426;29;20046;-63
2022/10/15 12:06:07;;;;;;;19.15;13.70;;;14.50;99.90;;;;;;4925528;29;20058;-64
2022/10/15 12:08:36;;;;;;;20.35;12.05;;;14.50;99.90;;;;;;4945239;29;20031;-63
2022/10/15 12:11:30;;;;;;;20.38;16.30;;;14.70;99.90;;;;;;4943040;29;20078;-64
2022/10/15 12:14:01;;;;;;;19.98;16.67;;;14.70;99.90;;;;;;4945762;29;20043;-64
2022/10/15 12:16:45;;;;;;;19.02;14.85;;;14.70;99.90;;;;;;4945075;29;20050;-62
2022/10/15 12:19:11;;;;;;;21.23;16.30;;;14.60;99.90;;;;;;4944535;29;20584;-63
2022/10/15 12:21:40;;;;;;;20.42;16.20;;;14.60;99.90;;;;;;4945509;29;20122;-62
2022/10/15 12:24:43;;;;;;;17.98;13.32;;;14.70;99.90;;;;;;4944850;29;20748;-64
2022/10/15 12:27:17;;;;;;;18.90;16.45;;;14.90;99.90;;;;;;4943821;29;20490;-64
2022/10/15 12:29:51;;;;;;;;;;;14.70;99.90;;;;;;4944447;29;20043;-63
2022/10/15 12:32:27;;;;;;;19.88;16.20;;;14.70;99.90;;;;;;4944458;29;20461;-62
2022/10/15 12:34:58;;;;;;;20.73;15.70;;;14.80;99.90;;;;;;4945004;29;20126;-63
2022/10/15 12:37:31;;;;;;;19.77;16.45;;;14.70;99.90;;;;;;4945837;29;20392;-62
2022/10/15 12:40:01;;;;;;;20.85;14.93;;;15.00;99.90;;;;;;4945555;28;20219;-61
2022/10/15 12:42:38;;;;;;;18.83;15.40;;;15.00;99.90;;;;;;4946086;29;20616;-62
2022/10/15 12:45:20;;;;;;;17.10;11.85;;;15.00;99.90;;;;;;4944726;29;20048;-61
2022/10/15 12:47:54;;;;;;;17.00;14.60;;;15.10;99.90;;;;;;4946453;29;20055;-62
2022/10/15 12:50:26;;;;;;;17.75;12.90;;;15.10;99.90;;;;;;4944750;29;20156;-62